Time;durP1;ratioP1;P1;durP2;ratioP2;P2;SDS_P1;SDS_P2;PMS_P1;PMS_P2;Temp;Humidity;BMP_temperature;BMP_pressure;BME280_temperature;BME280_humidity;BME280_pressure;Samples;Min_cycle;Max_cycle;Signal;HPM_P1;HPM_P2
2024/04/14 00:00:45;;;;;;;6.07;3.65;;;;;;;;;;5564753;25;20029;-60
2024/04/14 00:03:14;;;;;;;6.15;3.53;;;;;;;;;;5565876;25;20029;-60
2024/04/14 00:05:40;;;;;;;4.53;3.22;;;;;;;;;;5576725;25;20028;-60
2024/04/14 00:08:09;;;;;;;6.50;3.63;;;;;;;;;;5585852;25;20041;-59
2024/04/14 00:10:35;;;;;;;5.25;3.55;;;;;;;;;;5603033;25;20023;-60
2024/04/14 00:13:04;;;;;;;5.30;3.58;;;;;;;;;;5593288;25;20029;-59
2024/04/14 00:15:30;;;;;;;5.95;3.22;;;;;;;;;;5564748;25;20509;-59
2024/04/14 00:18:02;;;;;;;5.65;3.40;;;;;;;;;;5564469;25;20037;-59
2024/04/14 00:20:28;;;;;;;5.63;3.70;;;;;;;;;;5565288;25;20044;-59
2024/04/14 00:22:57;;;;;;;4.30;3.08;;;;;;;;;;5582756;25;20032;-60
2024/04/14 00:25:23;;;;;;;5.10;3.17;;;;;;;;;;5586822;25;20036;-60
2024/04/14 00:27:51;;;;;;;4.68;2.80;;;;;;;;;;5584351;25;20035;-60
2024/04/14 00:30:18;;;;;;;4.90;2.75;;;;;;;;;;5585113;25;20029;-60
2024/04/14 00:32:47;;;;;;;5.80;3.22;;;;;;;;;;5570404;25;20041;-60
2024/04/14 00:35:15;;;;;;;5.50;3.17;;;;;;;;;;5575048;25;20024;-59
2024/04/14 00:37:45;;;;;;;5.30;3.53;;;;;;;;;;5565038;25;20381;-60
2024/04/14 00:40:11;;;;;;;;;;;;;;;;;;5564804;25;20026;-59
2024/04/14 00:42:39;;;;;;;4.45;2.70;;;;;;;;;;5565077;25;19930;-60
2024/04/14 00:45:06;;;;;;;3.50;2.40;;;;;;;;;;5566630;25;20024;-59
2024/04/14 00:47:35;;;;;;;3.33;2.00;;;;;;;;;;5566643;25;20024;-59
2024/04/14 00:50:01;;;;;;;3.67;1.85;;;;;;;;;;5564740;25;20033;-60
2024/04/14 00:52:33;;;;;;;5.18;2.05;;;;;;;;;;5572993;25;20032;-64
2024/04/14 00:54:59;;;;;;;4.85;1.80;;;;;;;;;;5579502;25;20037;-60
2024/04/14 00:57:28;;;;;;;4.20;1.63;;;;;;;;;;5575150;25;20040;-60
2024/04/14 00:59:55;;;;;;;3.72;1.70;;;;;;;;;;5579527;25;20027;-60
2024/04/14 01:02:24;;;;;;;3.35;2.00;;;;;;;;;;5583187;25;20028;-59
2024/04/14 01:04:50;;;;;;;2.83;1.88;;;;;;;;;;5570050;25;20478;-60
2024/04/14 01:07:19;;;;;;;4.13;1.80;;;;;;;;;;5586152;25;20024;-60
2024/04/14 01:09:48;;;;;;;3.55;1.45;;;;;;;;;;5602389;25;20115;-59
2024/04/14 01:12:17;;;;;;;2.47;1.50;;;;;;;;;;5601796;25;20035;-60
2024/04/14 01:14:43;;;;;;;3.42;1.63;;;;;;;;;;5598566;25;20028;-60
2024/04/14 01:17:12;;;;;;;3.72;1.50;;;;;;;;;;5581243;25;20028;-59
2024/04/14 01:19:38;;;;;;;3.58;1.90;;;;;;;;;;5590483;25;20024;-58
2024/04/14 01:22:07;;;;;;;6.05;1.98;;;;;;;;;;5600829;25;20023;-59
2024/04/14 01:24:33;;;;;;;4.32;1.70;;;;;;;;;;5601569;25;20493;-59
2024/04/14 01:27:05;;;;;;;3.15;1.67;;;;;;;;;;5576215;25;20039;-58
2024/04/14 01:29:32;;;;;;;2.92;1.83;;;;;;;;;;5574752;25;20028;-59
2024/04/14 01:32:00;;;;;;;3.20;1.60;;;;;;;;;;5578292;25;20024;-58
2024/04/14 01:34:26;;;;;;;3.72;1.40;;;;;;;;;;5563861;25;20037;-59
2024/04/14 01:36:55;;;;;;;3.13;1.50;;;;;;;;;;5564131;25;20021;-60
2024/04/14 01:39:21;;;;;;;5.28;1.70;;;;;;;;;;5563758;25;20037;-59
2024/04/14 01:41:50;;;;;;;3.90;1.90;;;;;;;;;;5563870;25;20025;-59
2024/04/14 01:44:19;;;;;;;3.95;1.77;;;;;;;;;;5579270;25;20040;-60
2024/04/14 01:46:47;;;;;;;3.55;2.10;;;;;;;;;;5572136;25;20474;-59
2024/04/14 01:49:13;;;;;;;2.83;1.48;;;;;;;;;;5575994;25;20481;-59
2024/04/14 01:51:42;;;;;;;7.50;1.77;;;;;;;;;;5601058;25;20037;-59
2024/04/14 01:54:10;;;;;;;3.78;1.70;;;;;;;;;;5601405;25;20023;-59
2024/04/14 01:56:39;;;;;;;3.47;1.60;;;;;;;;;;5601635;25;20027;-59
2024/04/14 01:59:05;;;;;;;3.58;2.00;;;;;;;;;;5600147;25;20382;-59
2024/04/14 02:01:36;;;;;;;4.72;1.95;;;;;;;;;;5545451;25;20033;-59
2024/04/14 02:04:04;;;;;;;2.97;1.70;;;;;;;;;;5526248;26;19993;-59
2024/04/14 02:06:32;;;;;;;7.13;1.60;;;;;;;;;;5525422;26;20026;-59
2024/04/14 02:08:59;;;;;;;5.88;2.03;;;;;;;;;;5526099;26;20033;-59
2024/04/14 02:11:27;;;;;;;5.00;1.60;;;;;;;;;;5543392;25;20033;-60
2024/04/14 02:13:54;;;;;;;5.13;1.88;;;;;;;;;;5526266;25;20037;-60
2024/04/14 02:16:22;;;;;;;4.75;2.17;;;;;;;;;;5526640;25;20499;-59
2024/04/14 02:18:51;;;;;;;5.00;2.00;;;;;;;;;;5541434;25;20029;-59
2024/04/14 02:21:20;;;;;;;7.17;2.10;;;;;;;;;;5538400;25;20386;-59
2024/04/14 02:23:46;;;;;;;4.43;1.73;;;;;;;;;;5545418;25;20029;-59
2024/04/14 02:26:14;;;;;;;4.85;1.80;;;;;;;;;;5546445;25;20029;-59
2024/04/14 02:28:41;;;;;;;3.65;1.88;;;;;;;;;;5539618;25;20481;-60
2024/04/14 02:31:09;;;;;;;5.00;1.92;;;;;;;;;;5541756;25;20041;-59
2024/04/14 02:33:36;;;;;;;5.78;2.10;;;;;;;;;;5536593;25;20021;-59
2024/04/14 02:36:07;;;;;;;4.00;1.90;;;;;;;;;;5523031;25;20385;-59
2024/04/14 02:38:33;;;;;;;3.65;1.70;;;;;;;;;;5538603;25;20029;-60
2024/04/14 02:41:03;;;;;;;4.97;2.20;;;;;;;;;;5548332;25;20483;-65
2024/04/14 02:43:29;;;;;;;;;;;;;;;;;;5538119;25;20029;-58
2024/04/14 02:45:58;;;;;;;3.55;1.75;;;;;;;;;;5524714;26;19923;-59
2024/04/14 02:48:24;;;;;;;3.63;1.80;;;;;;;;;;5525565;26;20025;-58
2024/04/14 02:50:53;;;;;;;4.93;2.10;;;;;;;;;;5524662;26;20038;-58
2024/04/14 02:53:22;;;;;;;5.90;2.10;;;;;;;;;;5546081;25;20037;-59
2024/04/14 02:55:50;;;;;;;4.97;2.25;;;;;;;;;;5549381;25;20380;-59
2024/04/14 02:58:17;;;;;;;6.67;1.83;;;;;;;;;;5528583;25;20029;-58
2024/04/14 03:00:46;;;;;;;4.70;2.10;;;;;;;;;;5520737;25;20025;-59
2024/04/14 03:03:12;;;;;;;4.27;1.70;;;;;;;;;;5576161;25;20033;-60
2024/04/14 03:05:40;;;;;;;4.78;1.90;;;;;;;;;;5576094;25;20401;-60
2024/04/14 03:08:06;;;;;;;9.50;2.40;;;;;;;;;;5584180;25;20028;-60
2024/04/14 03:10:38;;;;;;;5.57;2.30;;;;;;;;;;5583527;25;20028;-60
2024/04/14 03:13:04;;;;;;;5.65;2.15;;;;;;;;;;5571996;25;20138;-61
2024/04/14 03:15:33;;;;;;;6.20;2.20;;;;;;;;;;5576688;25;20028;-60
2024/04/14 03:17:59;;;;;;;5.23;2.20;;;;;;;;;;5573961;25;20033;-60
2024/04/14 03:20:28;;;;;;;5.70;2.47;;;;;;;;;;5579628;25;20383;-61
2024/04/14 03:22:54;;;;;;;5.38;1.88;;;;;;;;;;5600143;25;20024;-60
2024/04/14 03:25:23;;;;;;;5.78;2.22;;;;;;;;;;5594162;25;20473;-60
2024/04/14 03:27:52;;;;;;;7.55;2.83;;;;;;;;;;5583336;25;20036;-60
2024/04/14 03:30:20;;;;;;;6.40;2.40;;;;;;;;;;5578899;25;20384;-60
2024/04/14 03:32:46;;;;;;;7.33;2.37;;;;;;;;;;5585059;25;20368;-60
2024/04/14 03:35:15;;;;;;;6.93;2.42;;;;;;;;;;5582557;25;20040;-60
2024/04/14 03:37:44;;;;;;;4.93;2.13;;;;;;;;;;5580477;25;20028;-61
2024/04/14 03:40:13;;;;;;;7.03;2.60;;;;;;;;;;5565265;25;20952;-60
2024/04/14 03:42:42;;;;;;;6.75;2.60;;;;;;;;;;5561998;25;20033;-60
2024/04/14 03:45:14;;;;;;;5.77;2.57;;;;;;;;;;5561593;25;20025;-61
2024/04/14 03:47:43;;;;;;;7.53;3.03;;;;;;;;;;5562184;25;20379;-60
2024/04/14 03:50:09;;;;;;;5.57;2.40;;;;;;;;;;5577513;25;20478;-60
2024/04/14 03:52:38;;;;;;;9.60;3.03;;;;;;;;;;5579357;25;20372;-60
2024/04/14 03:55:04;;;;;;;7.57;2.67;;;;;;;;;;5603007;25;20032;-60
2024/04/14 03:57:33;;;;;;;8.70;2.95;;;;;;;;;;5602799;25;20364;-60
2024/04/14 03:59:59;;;;;;;6.30;2.67;;;;;;;;;;5589578;25;20019;-61
2024/04/14 04:02:31;;;;;;;7.43;2.65;;;;;;;;;;5580935;25;20044;-59
2024/04/14 04:04:57;;;;;;;6.68;2.70;;;;;;;;;;5575591;25;20026;-61
2024/04/14 04:07:25;;;;;;;4.63;2.70;;;;;;;;;;5572826;25;20039;-60
2024/04/14 04:09:52;;;;;;;8.20;3.00;;;;;;;;;;5565159;25;20024;-60
2024/04/14 04:12:20;;;;;;;7.57;2.90;;;;;;;;;;5564583;25;20391;-60
2024/04/14 04:14:46;;;;;;;9.90;3.00;;;;;;;;;;5565172;25;20033;-59
2024/04/14 04:17:15;;;;;;;8.95;2.70;;;;;;;;;;5575933;25;20360;-60
2024/04/14 04:19:44;;;;;;;5.43;2.50;;;;;;;;;;5569800;25;20025;-59
2024/04/14 04:22:13;;;;;;;7.55;2.67;;;;;;;;;;5600899;25;20469;-60
2024/04/14 04:24:39;;;;;;;7.15;2.90;;;;;;;;;;5567833;25;20379;-60
2024/04/14 04:27:08;;;;;;;9.32;3.28;;;;;;;;;;5564192;25;20497;-60
2024/04/14 04:29:34;;;;;;;11.25;3.20;;;;;;;;;;5564732;25;20040;-60
2024/04/14 04:32:03;;;;;;;7.60;2.72;;;;;;;;;;5564460;25;20379;-61
2024/04/14 04:34:29;;;;;;;4.63;2.50;;;;;;;;;;5576999;25;20374;-61
2024/04/14 04:37:00;;;;;;;6.82;2.92;;;;;;;;;;5583448;25;20064;-60
2024/04/14 04:39:26;;;;;;;6.85;2.58;;;;;;;;;;5576889;25;20025;-61
2024/04/14 04:41:55;;;;;;;7.50;3.05;;;;;;;;;;5579663;25;20462;-60
2024/04/14 04:44:21;;;;;;;8.47;2.93;;;;;;;;;;5591729;25;20024;-60
2024/04/14 04:46:51;;;;;;;6.90;2.95;;;;;;;;;;5601429;25;20918;-60
2024/04/14 04:49:17;;;;;;;10.18;3.00;;;;;;;;;;5583830;25;20508;-60
2024/04/14 04:51:45;;;;;;;6.35;3.20;;;;;;;;;;5566875;25;20044;-60
2024/04/14 04:54:14;;;;;;;4.80;2.88;;;;;;;;;;5563264;25;20461;-60
2024/04/14 04:56:43;;;;;;;9.15;3.40;;;;;;;;;;5563380;25;20477;-60
2024/04/14 04:59:09;;;;;;;11.15;2.97;;;;;;;;;;5564233;25;20028;-61
2024/04/14 05:01:38;;;;;;;7.22;3.25;;;;;;;;;;5562718;25;20516;-59
2024/04/14 05:04:04;;;;;;;9.87;3.50;;;;;;;;;;5574953;25;20357;-59
2024/04/14 05:06:33;;;;;;;8.10;3.70;;;;;;;;;;5564235;25;20387;-59
2024/04/14 05:08:59;;;;;;;9.47;4.07;;;;;;;;;;5564146;25;20028;-60
2024/04/14 05:11:30;;;;;;;7.63;3.70;;;;;;;;;;5573467;25;20027;-59
2024/04/14 05:13:56;;;;;;;9.15;3.33;;;;;;;;;;5575554;25;20022;-60
2024/04/14 05:16:25;;;;;;;6.80;2.90;;;;;;;;;;5569532;25;20367;-59
2024/04/14 05:18:51;;;;;;;8.82;3.13;;;;;;;;;;5570873;25;20478;-58
2024/04/14 05:21:20;;;;;;;6.32;2.53;;;;;;;;;;5562751;25;20036;-60
2024/04/14 05:23:46;;;;;;;5.05;2.78;;;;;;;;;;5563832;25;20028;-59
2024/04/14 05:26:15;;;;;;;7.38;2.67;;;;;;;;;;5562970;25;20037;-60
2024/04/14 05:28:44;;;;;;;7.10;2.80;;;;;;;;;;5575378;25;20473;-60
2024/04/14 05:31:12;;;;;;;8.87;2.73;;;;;;;;;;5601003;25;20912;-60
2024/04/14 05:33:38;;;;;;;8.67;2.83;;;;;;;;;;5595283;25;20461;-63
2024/04/14 05:36:08;;;;;;;4.50;2.50;;;;;;;;;;5584000;25;20032;-59
2024/04/14 05:38:35;;;;;;;9.02;2.90;;;;;;;;;;5576605;25;20025;-60
2024/04/14 05:41:04;;;;;;;6.32;3.28;;;;;;;;;;5579309;25;20032;-59
2024/04/14 05:43:30;;;;;;;5.65;2.83;;;;;;;;;;5584099;25;20064;-59
2024/04/14 05:46:01;;;;;;;6.55;3.00;;;;;;;;;;5565360;25;20032;-60
2024/04/14 05:48:27;;;;;;;6.68;2.63;;;;;;;;;;5564446;25;20025;-59
2024/04/14 05:50:56;;;;;;;11.50;3.33;;;;;;;;;;5581551;25;20469;-58
2024/04/14 05:53:22;;;;;;;7.00;3.00;;;;;;;;;;5580905;25;20036;-58
2024/04/14 05:55:51;;;;;;;8.43;3.75;;;;;;;;;;5573799;25;20402;-61
2024/04/14 05:58:17;;;;;;;8.88;3.22;;;;;;;;;;5574289;25;20371;-59
2024/04/14 06:00:46;;;;;;;9.57;3.40;;;;;;;;;;5572556;25;20028;-59
2024/04/14 06:03:15;;;;;;;7.47;3.40;;;;;;;;;;5591132;25;20036;-60
2024/04/14 06:05:44;;;;;;;;;;;;;;;;;;5601492;25;20016;-59
2024/04/14 06:08:12;;;;;;;7.65;3.53;;;;;;;;;;5600528;25;19959;-58
2024/04/14 06:10:41;;;;;;;13.05;3.63;;;;;;;;;;5600661;25;20485;-58
2024/04/14 06:13:07;;;;;;;8.40;3.47;;;;;;;;;;5582274;25;20466;-59
2024/04/14 06:15:35;;;;;;;10.80;3.40;;;;;;;;;;5568407;25;20036;-59
2024/04/14 06:18:01;;;;;;;8.18;3.70;;;;;;;;;;5580776;25;20028;-58
2024/04/14 06:20:33;;;;;;;9.45;4.20;;;;;;;;;;5599341;25;20032;-58
2024/04/14 06:22:59;;;;;;;7.32;3.55;;;;;;;;;;5594814;25;20041;-61
2024/04/14 06:25:28;;;;;;;9.60;4.00;;;;;;;;;;5593835;25;20492;-60
2024/04/14 06:27:54;;;;;;;6.73;3.67;;;;;;;;;;5599724;25;20036;-61
2024/04/14 06:30:22;;;;;;;10.23;4.25;;;;;;;;;;5595162;25;20395;-60
2024/04/14 06:32:49;;;;;;;12.23;4.22;;;;;;;;;;5580503;25;20032;-59
2024/04/14 06:35:18;;;;;;;8.30;4.10;;;;;;;;;;5597471;25;20037;-58
2024/04/14 06:37:47;;;;;;;9.50;4.40;;;;;;;;;;5599942;25;20037;-58
2024/04/14 06:40:15;;;;;;;11.65;4.50;;;;;;;;;;5580851;25;20041;-60
2024/04/14 06:42:41;;;;;;;9.38;4.50;;;;;;;;;;5577985;25;20033;-60
2024/04/14 06:45:11;;;;;;;9.70;4.18;;;;;;;;;;5597854;25;20036;-59
2024/04/14 06:47:37;;;;;;;8.32;4.00;;;;;;;;;;5579021;25;20382;-58
2024/04/14 06:50:07;;;;;;;8.45;3.95;;;;;;;;;;5589501;25;20024;-59
2024/04/14 06:52:33;;;;;;;8.93;4.13;;;;;;;;;;5600317;25;20044;-59
2024/04/14 06:55:05;;;;;;;12.25;4.65;;;;;;;;;;5600076;25;20028;-58
2024/04/14 06:57:31;;;;;;;9.15;4.65;;;;;;;;;;5600099;25;20490;-59
2024/04/14 07:00:00;;;;;;;9.93;4.20;;;;;;;;;;5597571;25;20057;-59
2024/04/14 07:02:26;;;;;;;10.35;4.85;;;;;;;;;;5577863;25;20025;-59
2024/04/14 07:04:55;;;;;;;9.52;5.20;;;;;;;;;;5596623;25;20040;-58
2024/04/14 07:07:21;;;;;;;11.60;5.03;;;;;;;;;;5600445;25;20033;-59
2024/04/14 07:09:50;;;;;;;10.85;5.97;;;;;;;;;;5599045;25;20489;-58
2024/04/14 07:12:19;;;;;;;11.00;6.03;;;;;;;;;;5583702;25;20028;-59
2024/04/14 07:14:48;;;;;;;8.63;6.13;;;;;;;;;;5569831;25;20482;-59
2024/04/14 07:17:14;;;;;;;9.80;5.35;;;;;;;;;;5561726;25;20024;-59
2024/04/14 07:19:43;;;;;;;10.68;5.63;;;;;;;;;;5561227;25;20033;-62
2024/04/14 07:22:09;;;;;;;;;;;;;;;;;;5566151;25;20027;-59
2024/04/14 07:24:38;;;;;;;11.57;5.60;;;;;;;;;;5572896;25;19964;-58
2024/04/14 07:27:06;;;;;;;9.93;4.43;;;;;;;;;;5575980;25;20028;-58
2024/04/14 07:29:38;;;;;;;10.23;4.93;;;;;;;;;;5575737;25;20028;-58
2024/04/14 07:32:05;;;;;;;7.40;3.75;;;;;;;;;;5603703;25;20728;-60
2024/04/14 07:34:34;;;;;;;10.32;4.95;;;;;;;;;;5601927;25;20043;-58
2024/04/14 07:37:02;;;;;;;10.73;4.82;;;;;;;;;;5602592;25;20028;-59
2024/04/14 07:39:31;;;;;;;9.40;4.72;;;;;;;;;;5595313;25;20025;-59
2024/04/14 07:41:57;;;;;;;10.50;4.30;;;;;;;;;;5577979;25;20042;-59
2024/04/14 07:44:26;;;;;;;12.75;4.63;;;;;;;;;;5565260;25;20381;-59
2024/04/14 07:46:55;;;;;;;7.43;4.00;;;;;;;;;;5584622;25;20033;-58
2024/04/14 07:49:24;;;;;;;10.07;4.32;;;;;;;;;;5597723;25;20035;-59
2024/04/14 07:51:52;;;;;;;9.13;4.53;;;;;;;;;;5578730;25;20434;-59
2024/04/14 07:54:18;;;;;;;8.77;4.25;;;;;;;;;;5574263;25;20398;-58
2024/04/14 07:56:47;;;;;;;7.63;3.85;;;;;;;;;;5565126;25;20029;-62
2024/04/14 07:59:13;;;;;;;9.20;4.35;;;;;;;;;;5580760;25;20170;-59
2024/04/14 08:01:42;;;;;;;8.18;3.90;;;;;;;;;;5582806;25;20071;-59
2024/04/14 08:04:11;;;;;;;8.10;3.70;;;;;;;;;;5578159;25;20021;-58
2024/04/14 08:06:39;;;;;;;8.52;3.58;;;;;;;;;;5592581;25;20023;-59
2024/04/14 08:09:08;;;;;;;11.45;3.40;;;;;;;;;;5572008;25;20040;-59
2024/04/14 08:11:37;;;;;;;8.43;3.17;;;;;;;;;;5565327;25;20059;-59
2024/04/14 08:14:08;;;;;;;7.82;3.55;;;;;;;;;;5576384;25;20020;-60
2024/04/14 08:16:36;;;;;;;10.10;3.33;;;;;;;;;;5602668;25;20033;-59
2024/04/14 08:19:03;;;;;;;9.45;4.28;;;;;;;;;;5602547;25;20376;-60
2024/04/14 08:21:34;;;;;;;7.10;3.42;;;;;;;;;;5595666;25;20107;-59
2024/04/14 08:24:00;;;;;;;7.95;3.70;;;;;;;;;;5601120;25;20036;-59
2024/04/14 08:26:29;;;;;;;8.88;4.22;;;;;;;;;;5593974;25;20032;-59
2024/04/14 08:28:55;;;;;;;6.53;3.65;;;;;;;;;;5564396;25;20025;-58
2024/04/14 08:31:24;;;;;;;6.55;3.28;;;;;;;;;;5564164;25;20392;-59
2024/04/14 08:33:50;;;;;;;6.32;2.88;;;;;;;;;;5586245;25;20037;-59
2024/04/14 08:36:19;;;;;;;6.30;3.33;;;;;;;;;;5601659;25;20023;-59
2024/04/14 08:38:49;;;;;;;5.80;2.90;;;;;;;;;;5602104;25;20032;-59
2024/04/14 08:41:19;;;;;;;6.55;3.80;;;;;;;;;;5601159;25;20028;-59
2024/04/14 08:43:45;;;;;;;5.60;3.78;;;;;;;;;;5577541;25;20477;-60
2024/04/14 08:46:16;;;;;;;7.60;3.72;;;;;;;;;;5571968;25;20024;-59
2024/04/14 08:48:42;;;;;;;7.32;2.88;;;;;;;;;;5583249;25;20028;-59
2024/04/14 08:51:12;;;;;;;7.07;3.83;;;;;;;;;;5579689;25;20478;-61
2024/04/14 08:53:39;;;;;;;5.50;3.58;;;;;;;;;;5578712;25;20028;-60
2024/04/14 08:56:10;;;;;;;7.20;3.22;;;;;;;;;;5569337;25;20024;-61
2024/04/14 08:58:38;;;;;;;5.38;3.17;;;;;;;;;;5567450;25;20033;-59
2024/04/14 09:01:07;;;;;;;8.13;3.90;;;;;;;;;;5592580;25;20032;-60
2024/04/14 09:03:34;;;;;;;7.60;3.95;;;;;;;;;;5601129;25;20498;-60
2024/04/14 09:06:04;;;;;;;9.68;3.60;;;;;;;;;;5601540;25;20028;-60
2024/04/14 09:08:30;;;;;;;6.32;3.63;;;;;;;;;;5584867;25;20044;-60
2024/04/14 09:10:59;;;;;;;6.00;3.35;;;;;;;;;;5592977;25;20035;-60
2024/04/14 09:13:29;;;;;;;6.47;3.92;;;;;;;;;;5602005;25;20023;-60
2024/04/14 09:15:58;;;;;;;7.35;3.63;;;;;;;;;;5600448;25;20033;-59
2024/04/14 09:18:24;;;;;;;7.10;3.88;;;;;;;;;;5584345;25;20054;-62
2024/04/14 09:20:53;;;;;;;7.30;3.90;;;;;;;;;;5568112;25;20370;-67
2024/04/14 09:23:19;;;;;;;7.03;4.03;;;;;;;;;;5578763;25;20024;-59
2024/04/14 09:25:48;;;;;;;6.45;3.50;;;;;;;;;;5580983;25;20025;-59
2024/04/14 09:28:16;;;;;;;6.00;3.88;;;;;;;;;;5578164;25;20028;-58
2024/04/14 09:30:47;;;;;;;5.85;3.38;;;;;;;;;;5581797;25;20037;-60
2024/04/14 09:33:14;;;;;;;6.05;3.45;;;;;;;;;;5591505;25;20031;-59
2024/04/14 09:35:43;;;;;;;5.63;2.80;;;;;;;;;;5600669;25;20024;-61
2024/04/14 09:38:14;;;;;;;4.80;2.65;;;;;;;;;;5600695;25;20028;-58
2024/04/14 09:40:44;;;;;;;6.20;2.25;;;;;;;;;;5573161;25;20476;-59
2024/04/14 09:43:15;;;;;;;6.28;2.15;;;;;;;;;;5574241;25;20477;-62
2024/04/14 09:45:44;;;;;;;3.72;1.88;;;;;;;;;;5580027;25;20033;-59
2024/04/14 09:48:13;;;;;;;4.28;2.10;;;;;;;;;;5562189;25;20033;-59
2024/04/14 09:50:44;;;;;;;4.10;2.10;;;;;;;;;;5562052;25;20041;-59
2024/04/14 09:53:11;;;;;;;3.58;2.03;;;;;;;;;;5563062;25;20033;-59
2024/04/14 09:55:41;;;;;;;7.72;1.88;;;;;;;;;;5573443;25;20032;-60
2024/04/14 09:58:07;;;;;;;3.72;1.90;;;;;;;;;;5571521;25;20028;-60
2024/04/14 10:00:36;;;;;;;4.82;2.05;;;;;;;;;;5595678;25;20020;-59
2024/04/14 10:03:04;;;;;;;3.15;1.50;;;;;;;;;;5601165;25;20031;-59
2024/04/14 10:05:37;;;;;;;2.92;1.40;;;;;;;;;;5586339;25;20025;-60
2024/04/14 10:08:04;;;;;;;3.50;1.63;;;;;;;;;;5570815;25;20036;-59
2024/04/14 10:10:33;;;;;;;4.32;1.88;;;;;;;;;;5599483;25;20031;-59
2024/04/14 10:12:59;;;;;;;;;;;;;;;;;;5600788;25;20036;-59
2024/04/14 10:15:28;;;;;;;4.03;1.88;;;;;;;;;;5596125;25;20341;-59
2024/04/14 10:18:08;;;;;;;5.43;1.88;;;;;;;;;;5577261;25;20027;-59
2024/04/14 10:20:45;;;;;;;4.55;1.77;;;;;;;;;;5592342;25;20024;-60
2024/04/14 10:23:15;;;;;;;4.82;1.70;;;;;;;;;;5562969;25;20020;-59
2024/04/14 10:25:47;;;;;;;4.00;1.83;;;;;;;;;;5561585;25;20028;-59
2024/04/14 10:28:15;;;;;;;6.32;2.20;;;;;;;;;;5562973;25;20037;-59
2024/04/14 10:30:48;;;;;;;4.70;1.65;;;;;;;;;;5561945;25;20032;-61
2024/04/14 10:33:20;;;;;;;5.15;1.90;;;;;;;;;;5573832;25;20036;-60
2024/04/14 10:36:01;;;;;;;3.83;1.83;;;;;;;;;;5593471;25;20047;-60
2024/04/14 10:38:28;;;;;;;4.95;1.77;;;;;;;;;;5580484;25;20036;-60
2024/04/14 10:40:57;;;;;;;3.95;1.55;;;;;;;;;;5579735;25;20025;-59
2024/04/14 10:43:24;;;;;;;3.40;1.58;;;;;;;;;;5574734;25;20115;-60
2024/04/14 10:45:53;;;;;;;4.00;1.55;;;;;;;;;;5573431;25;20098;-59
2024/04/14 10:48:20;;;;;;;3.40;1.45;;;;;;;;;;5570364;25;20033;-58
2024/04/14 10:50:51;;;;;;;4.97;1.63;;;;;;;;;;5576540;25;20128;-59
2024/04/14 10:53:18;;;;;;;4.45;1.83;;;;;;;;;;5599802;25;20035;-59
2024/04/14 10:55:46;;;;;;;4.18;1.75;;;;;;;;;;5599186;25;20035;-59
2024/04/14 10:58:12;;;;;;;2.85;1.60;;;;;;;;;;5598655;25;20481;-60
2024/04/14 11:00:42;;;;;;;5.32;1.58;;;;;;;;;;5595741;25;20023;-60
2024/04/14 11:03:09;;;;;;;3.53;1.30;;;;;;;;;;5603949;25;20374;-59
2024/04/14 11:05:38;;;;;;;2.28;1.48;;;;;;;;;;5592487;25;20023;-60
2024/04/14 11:08:11;;;;;;;3.85;1.40;;;;;;;;;;5585130;25;20038;-60
2024/04/14 11:10:40;;;;;;;3.33;1.30;;;;;;;;;;5573112;25;20025;-59
2024/04/14 11:13:06;;;;;;;3.63;1.30;;;;;;;;;;5566324;25;20021;-59
2024/04/14 11:15:35;;;;;;;4.45;1.70;;;;;;;;;;5565187;25;20382;-59
2024/04/14 11:18:01;;;;;;;;;;;;;;;;;;5568241;25;20036;-59
2024/04/14 11:20:30;;;;;;;3.72;1.58;;;;;;;;;;5570746;25;19964;-59
2024/04/14 11:22:59;;;;;;;3.78;1.75;;;;;;;;;;5565666;25;20025;-58
2024/04/14 11:25:30;;;;;;;3.65;1.55;;;;;;;;;;5564274;25;20102;-59
2024/04/14 11:27:57;;;;;;;2.95;1.50;;;;;;;;;;5565456;25;20051;-58
2024/04/14 11:30:28;;;;;;;3.63;1.45;;;;;;;;;;5584163;25;20040;-58
2024/04/14 11:32:54;;;;;;;3.55;1.70;;;;;;;;;;5595879;25;20020;-59
2024/04/14 11:35:23;;;;;;;4.03;1.75;;;;;;;;;;5585580;25;20044;-59
2024/04/14 11:37:52;;;;;;;3.17;1.70;;;;;;;;;;5598904;25;20395;-59
2024/04/14 11:40:21;;;;;;;3.85;1.70;;;;;;;;;;5583342;25;20490;-63
2024/04/14 11:42:50;;;;;;;4.30;1.90;;;;;;;;;;5565704;25;20029;-60
2024/04/14 11:45:19;;;;;;;;;;;;;;;;;;5565974;25;20033;-60
2024/04/14 11:47:45;;;;;;;3.80;1.42;;;;;;;;;;5587602;25;19954;-60
2024/04/14 11:50:14;;;;;;;3.28;1.30;;;;;;;;;;5583913;25;20040;-60
2024/04/14 11:52:40;;;;;;;;;;;;;;;;;;5565345;25;20028;-59
2024/04/14 11:55:09;;;;;;;3.83;1.58;;;;;;;;;;5564798;25;19952;-60
2024/04/14 11:57:35;;;;;;;3.67;1.30;;;;;;;;;;5593726;25;20040;-60
2024/04/14 12:00:07;;;;;;;4.00;1.52;;;;;;;;;;5602194;25;20024;-60
2024/04/14 12:02:33;;;;;;;3.17;1.35;;;;;;;;;;5565403;25;20029;-60
2024/04/14 12:05:02;;;;;;;4.28;1.90;;;;;;;;;;5559648;25;20025;-60
2024/04/14 12:07:28;;;;;;;3.55;1.40;;;;;;;;;;5566258;25;20036;-60
2024/04/14 12:09:57;;;;;;;2.92;1.30;;;;;;;;;;5563973;25;20024;-60
2024/04/14 12:12:26;;;;;;;3.55;1.70;;;;;;;;;;5564503;25;20024;-60
2024/04/14 12:14:52;;;;;;;4.07;1.55;;;;;;;;;;5560548;25;20028;-61
2024/04/14 12:17:23;;;;;;;3.83;1.30;;;;;;;;;;5528818;25;20025;-59
2024/04/14 12:19:50;;;;;;;3.38;1.50;;;;;;;;;;5531403;25;20033;-60
2024/04/14 12:22:18;;;;;;;4.82;1.60;;;;;;;;;;5564193;25;20506;-59
2024/04/14 12:24:45;;;;;;;3.60;1.40;;;;;;;;;;5564876;25;20029;-59
2024/04/14 12:27:13;;;;;;;4.72;1.70;;;;;;;;;;5551962;25;20029;-60
2024/04/14 12:29:40;;;;;;;4.88;2.00;;;;;;;;;;5552899;25;20034;-59
2024/04/14 12:32:09;;;;;;;4.97;1.67;;;;;;;;;;5527238;25;20034;-59
2024/04/14 12:34:38;;;;;;;4.93;1.58;;;;;;;;;;5527103;26;20029;-59
2024/04/14 12:37:06;;;;;;;;;;;;;;;;;;5540116;25;20374;-61
2024/04/14 12:39:32;;;;;;;4.05;1.33;;;;;;;;;;5548852;25;19951;-60
2024/04/14 12:42:01;;;;;;;4.13;1.50;;;;;;;;;;5548842;25;20029;-59
2024/04/14 12:44:27;;;;;;;4.25;1.60;;;;;;;;;;5553160;25;20033;-59
2024/04/14 12:46:56;;;;;;;5.25;1.67;;;;;;;;;;5550628;25;20045;-60
2024/04/14 12:49:22;;;;;;;;;;;;;;;;;;5553401;25;20029;-60
2024/04/14 12:51:53;;;;;;;4.68;1.35;;;;;;;;;;5564897;25;19938;-59
2024/04/14 12:54:19;;;;;;;3.47;1.67;;;;;;;;;;5551757;25;20028;-60
2024/04/14 12:56:48;;;;;;;3.95;1.40;;;;;;;;;;5563292;25;20033;-60
2024/04/14 12:59:14;;;;;;;4.20;1.48;;;;;;;;;;5530668;25;20112;-60
2024/04/14 13:01:43;;;;;;;4.00;1.92;;;;;;;;;;5559102;25;20031;-60
2024/04/14 13:04:09;;;;;;;;;;;;;;;;;;5571343;25;20052;-60
2024/04/14 13:06:38;;;;;;;4.43;1.73;;;;;;;;;;5574045;25;19922;-61
2024/04/14 13:09:06;;;;;;;3.92;1.45;;;;;;;;;;5598456;25;20028;-60
2024/04/14 13:11:35;;;;;;;;;;;;;;;;;;5602725;25;20033;-59
2024/04/14 13:14:01;;;;;;;2.83;1.35;;;;;;;;;;5601827;25;20342;-59
2024/04/14 13:16:30;;;;;;;3.25;1.67;;;;;;;;;;5602111;25;20024;-60
2024/04/14 13:18:56;;;;;;;3.90;1.60;;;;;;;;;;5575837;25;20041;-59
2024/04/14 13:21:24;;;;;;;5.13;1.73;;;;;;;;;;5594718;25;20036;-59
2024/04/14 13:23:51;;;;;;;4.47;1.80;;;;;;;;;;5600380;25;20051;-59
2024/04/14 13:26:22;;;;;;;4.30;1.50;;;;;;;;;;5601124;25;20024;-60
2024/04/14 13:28:48;;;;;;;6.57;1.95;;;;;;;;;;5594110;25;20024;-59
2024/04/14 13:31:17;;;;;;;6.15;1.77;;;;;;;;;;5567432;25;20028;-59
2024/04/14 13:33:43;;;;;;;3.28;1.20;;;;;;;;;;5573209;25;20037;-59
2024/04/14 13:36:12;;;;;;;3.75;1.17;;;;;;;;;;5563524;25;20025;-60
2024/04/14 13:38:38;;;;;;;4.45;1.15;;;;;;;;;;5563942;25;20491;-59
2024/04/14 13:41:08;;;;;;;3.92;1.25;;;;;;;;;;5580381;25;20027;-59
2024/04/14 13:43:37;;;;;;;4.55;1.63;;;;;;;;;;5575205;25;20028;-60
2024/04/14 13:46:06;;;;;;;4.22;1.52;;;;;;;;;;5585083;25;20020;-61
2024/04/14 13:48:32;;;;;;;6.15;1.60;;;;;;;;;;5578285;25;20024;-59
2024/04/14 13:51:01;;;;;;;4.00;1.65;;;;;;;;;;5562508;25;20041;-59
2024/04/14 13:53:27;;;;;;;3.63;1.20;;;;;;;;;;5563736;25;20041;-58
2024/04/14 13:55:56;;;;;;;4.32;1.70;;;;;;;;;;5571726;25;20039;-60
2024/04/14 13:58:22;;;;;;;3.20;1.30;;;;;;;;;;5564857;25;20033;-60
2024/04/14 14:00:54;;;;;;;4.07;1.52;;;;;;;;;;5567794;25;20025;-59
2024/04/14 14:03:20;;;;;;;3.95;1.58;;;;;;;;;;5582117;25;20036;-59
2024/04/14 14:05:49;;;;;;;5.30;1.48;;;;;;;;;;5572883;25;20380;-59
2024/04/14 14:08:15;;;;;;;3.08;1.25;;;;;;;;;;5575027;25;20033;-59
2024/04/14 14:10:44;;;;;;;3.75;1.30;;;;;;;;;;5599832;25;20366;-60
2024/04/14 14:13:11;;;;;;;4.97;1.70;;;;;;;;;;5600893;25;20031;-59
2024/04/14 14:15:40;;;;;;;4.57;1.40;;;;;;;;;;5595534;25;20459;-59
2024/04/14 14:18:09;;;;;;;5.70;1.55;;;;;;;;;;5569586;25;20053;-60
2024/04/14 14:20:37;;;;;;;4.88;1.95;;;;;;;;;;5570120;25;20025;-59
2024/04/14 14:23:04;;;;;;;4.85;1.45;;;;;;;;;;5581155;25;20029;-59
2024/04/14 14:25:32;;;;;;;5.63;1.63;;;;;;;;;;5564990;25;20032;-59
2024/04/14 14:27:59;;;;;;;6.22;1.92;;;;;;;;;;5583880;25;20040;-67
2024/04/14 14:30:27;;;;;;;5.15;1.90;;;;;;;;;;5592308;25;20036;-59
2024/04/14 14:32:58;;;;;;;4.30;1.50;;;;;;;;;;5601249;25;20019;-59
2024/04/14 14:38:23;;;;;;;5.22;1.85;;;;;;;;;;5516567;25;20040;-59
2024/04/14 14:40:52;;;;;;;4.85;1.92;;;;;;;;;;5562409;25;20033;-58
2024/04/14 14:43:21;;;;;;;3.60;1.52;;;;;;;;;;5562374;25;20024;-58
2024/04/14 14:45:50;;;;;;;4.93;1.58;;;;;;;;;;5575617;25;20032;-58
2024/04/14 14:48:16;;;;;;;3.85;1.65;;;;;;;;;;5576761;25;20459;-59
2024/04/14 14:50:47;;;;;;;6.53;1.85;;;;;;;;;;5570482;25;20025;-62
2024/04/14 14:53:13;;;;;;;4.90;1.55;;;;;;;;;;5578444;25;20363;-58